createdAt,value
2022-12-08T00:00:53.914Z,4.70
2022-12-08T00:03:20.780Z,4.80
2022-12-08T00:06:07.129Z,4.87
2022-12-08T00:08:52.354Z,4.95
2022-12-08T00:11:19.227Z,4.73
2022-12-08T00:13:45.931Z,5.20
2022-12-08T00:16:12.514Z,4.80
2022-12-08T00:18:39.122Z,4.75
2022-12-08T00:21:05.925Z,4.82
2022-12-08T00:23:32.579Z,5.00
2022-12-08T00:26:03.503Z,5.70
2022-12-08T00:28:30.086Z,5.25
2022-12-08T00:30:56.702Z,4.93
2022-12-08T00:33:23.349Z,4.93
2022-12-08T00:35:50.012Z,4.95
2022-12-08T00:38:16.598Z,5.05
2022-12-08T00:40:46.676Z,4.90
2022-12-08T00:43:13.779Z,5.35
2022-12-08T00:45:40.445Z,4.80
2022-12-08T00:48:07.161Z,5.53
2022-12-08T00:50:33.744Z,5.87
2022-12-08T00:53:00.321Z,5.43
2022-12-08T00:55:26.868Z,6.80
2022-12-08T00:57:53.443Z,6.32
2022-12-08T01:00:20.347Z,5.87
2022-12-08T01:02:46.981Z,5.72
2022-12-08T01:05:13.606Z,6.47
2022-12-08T01:07:40.267Z,6.60
2022-12-08T01:10:07.640Z,6.82
2022-12-08T01:12:34.262Z,6.45
2022-12-08T01:15:02.600Z,6.20
2022-12-08T01:17:29.530Z,7.07
2022-12-08T01:19:56.153Z,6.70
2022-12-08T01:22:22.809Z,7.47
2022-12-08T01:24:49.361Z,6.70
2022-12-08T01:27:16.295Z,7.30
2022-12-08T01:29:42.860Z,6.97
2022-12-08T01:32:09.529Z,7.05
2022-12-08T01:34:36.114Z,7.93
2022-12-08T01:37:02.711Z,8.05
2022-12-08T01:39:29.990Z,7.75
2022-12-08T01:41:56.655Z,7.95
2022-12-08T01:44:43.041Z,7.82
2022-12-08T01:47:09.612Z,8.00
2022-12-08T01:49:36.224Z,8.40
2022-12-08T01:52:09.378Z,7.50
2022-12-08T01:54:45.755Z,8.98
2022-12-08T01:57:22.997Z,8.60
2022-12-08T01:59:55.069Z,8.60
2022-12-08T02:02:21.705Z,8.85
2022-12-08T02:04:48.347Z,8.90
2022-12-08T02:07:14.947Z,9.10
2022-12-08T02:09:41.517Z,9.27
2022-12-08T02:12:08.302Z,10.30
2022-12-08T02:14:34.919Z,9.77
2022-12-08T02:17:14.072Z,8.57
2022-12-08T02:19:52.914Z,9.25
2022-12-08T02:22:31.992Z,9.68
2022-12-08T02:25:04.518Z,8.55
2022-12-08T02:27:34.018Z,9.60
2022-12-08T02:30:11.537Z,9.77
2022-12-08T02:32:56.948Z,9.23
2022-12-08T02:35:44.376Z,10.48
2022-12-08T02:38:23.782Z,9.35
2022-12-08T02:40:57.475Z,11.30
2022-12-08T02:43:35.543Z,10.38
2022-12-08T02:46:04.721Z,10.60
2022-12-08T02:48:32.597Z,11.00
2022-12-08T02:50:59.149Z,10.05
2022-12-08T02:53:27.336Z,10.25
2022-12-08T02:56:26.271Z,10.13
2022-12-08T02:58:56.520Z,9.90
2022-12-08T03:01:54.796Z,11.10
2022-12-08T03:04:58.794Z,9.75
2022-12-08T03:07:27.137Z,10.15
2022-12-08T03:09:58.685Z,9.63
2022-12-08T03:12:36.124Z,10.43
2022-12-08T03:15:06.566Z,10.35
2022-12-08T03:17:33.126Z,10.93
2022-12-08T03:20:01.915Z,10.23
2022-12-08T03:22:28.866Z,10.18
2022-12-08T03:24:55.503Z,10.23
2022-12-08T03:27:29.008Z,10.55
2022-12-08T03:29:58.345Z,10.98
2022-12-08T03:32:48.345Z,10.25
2022-12-08T03:35:17.182Z,10.10
2022-12-08T03:37:43.809Z,10.23
2022-12-08T03:40:12.602Z,10.05
2022-12-08T03:42:39.207Z,10.93
2022-12-08T03:45:06.216Z,11.25
2022-12-08T03:47:32.830Z,10.13
2022-12-08T03:49:59.401Z,10.98
2022-12-08T03:52:26.077Z,11.40
2022-12-08T03:54:54.979Z,10.85
2022-12-08T03:57:21.807Z,11.07
2022-12-08T03:59:48.343Z,11.38
2022-12-08T04:02:14.936Z,9.95
2022-12-08T04:04:41.529Z,10.25
2022-12-08T04:07:08.113Z,10.50
2022-12-08T04:09:34.671Z,10.45
2022-12-08T04:12:01.254Z,11.38
2022-12-08T04:14:27.820Z,10.63
2022-12-08T04:16:54.356Z,10.95
2022-12-08T04:19:20.945Z,10.60
2022-12-08T04:21:47.520Z,10.20
2022-12-08T04:24:14.150Z,10.90
2022-12-08T04:26:40.687Z,10.82
2022-12-08T04:29:07.262Z,10.48
2022-12-08T04:31:33.856Z,11.20
2022-12-08T04:34:00.499Z,10.43
2022-12-08T04:36:27.050Z,10.32
2022-12-08T04:38:54.148Z,10.90
2022-12-08T04:41:20.678Z,10.40
2022-12-08T04:43:47.253Z,10.07
2022-12-08T04:46:13.882Z,11.40
2022-12-08T04:48:40.580Z,10.38
2022-12-08T04:51:07.229Z,11.32
2022-12-08T04:53:33.849Z,10.15
2022-12-08T04:56:00.391Z,10.13
2022-12-08T04:58:26.935Z,9.98
2022-12-08T05:00:53.596Z,10.02
2022-12-08T05:03:25.272Z,10.77
2022-12-08T05:05:55.029Z,10.50
2022-12-08T05:08:21.631Z,9.80
2022-12-08T05:10:48.301Z,10.73
2022-12-08T05:13:14.927Z,9.90
2022-12-08T05:15:41.499Z,9.50
2022-12-08T05:18:08.153Z,9.80
2022-12-08T05:20:34.989Z,9.77
2022-12-08T05:23:01.563Z,10.50
2022-12-08T05:25:28.139Z,9.18
2022-12-08T05:28:06.088Z,9.93
2022-12-08T05:30:38.170Z,9.20
2022-12-08T05:33:04.729Z,10.48
2022-12-08T05:35:31.386Z,9.77
2022-12-08T05:37:57.941Z,9.93
2022-12-08T05:40:24.507Z,10.35
2022-12-08T05:42:51.106Z,9.38
2022-12-08T05:45:17.744Z,10.68
2022-12-08T05:47:44.373Z,10.73
2022-12-08T05:50:11.049Z,11.48
2022-12-08T05:52:37.640Z,10.10
2022-12-08T05:55:04.386Z,10.27
2022-12-08T05:57:30.957Z,10.82
2022-12-08T05:59:59.503Z,10.95
2022-12-08T06:02:26.706Z,11.95
2022-12-08T06:04:53.473Z,12.25
2022-12-08T06:07:20.046Z,12.82
2022-12-08T06:09:46.602Z,12.40
2022-12-08T06:12:13.159Z,13.27
2022-12-08T06:14:39.791Z,12.35
2022-12-08T06:17:06.476Z,12.50
2022-12-08T06:19:33.133Z,12.43
2022-12-08T06:21:59.723Z,12.20
2022-12-08T06:24:26.306Z,13.75
2022-12-08T06:26:52.862Z,13.30
2022-12-08T06:29:19.452Z,13.02
2022-12-08T06:31:46.023Z,12.82
2022-12-08T06:34:12.731Z,16.00
2022-12-08T06:36:39.347Z,15.48
2022-12-08T06:39:05.974Z,15.13
2022-12-08T06:41:32.526Z,17.17
2022-12-08T06:43:59.086Z,17.70
2022-12-08T06:46:25.752Z,16.02
2022-12-08T06:48:53.076Z,16.00
2022-12-08T06:51:21.234Z,16.20
2022-12-08T06:53:47.834Z,15.77
2022-12-08T06:56:15.733Z,15.73
2022-12-08T06:58:45.037Z,16.58
2022-12-08T07:01:13.345Z,13.10
2022-12-08T07:03:40.159Z,14.27
2022-12-08T14:42:24.463Z,5.10
2022-12-08T14:44:59.462Z,4.57
2022-12-08T14:47:29.683Z,4.68
2022-12-08T14:49:56.228Z,5.28
2022-12-08T14:52:22.906Z,4.82
2022-12-08T14:54:50.035Z,4.60
2022-12-08T14:57:16.601Z,4.80
2022-12-08T14:59:43.162Z,4.40
2022-12-08T15:02:15.613Z,4.57
2022-12-08T15:04:43.091Z,4.30
2022-12-08T15:07:19.290Z,4.47
2022-12-08T15:10:09.735Z,4.60
2022-12-08T15:12:36.297Z,4.75
2022-12-08T15:15:15.310Z,4.47
2022-12-08T15:17:47.890Z,4.60
2022-12-08T15:20:35.079Z,4.85
2022-12-08T15:23:02.013Z,4.55
2022-12-08T15:25:28.635Z,5.03
2022-12-08T15:27:57.067Z,4.30
2022-12-08T15:30:23.853Z,4.55
2022-12-08T15:32:52.377Z,5.05
2022-12-08T15:35:19.036Z,4.85
2022-12-08T15:37:46.442Z,5.07
2022-12-08T15:40:18.821Z,4.80
2022-12-08T15:42:45.501Z,5.05
2022-12-08T15:45:15.974Z,5.00
2022-12-08T15:47:42.774Z,4.53
2022-12-08T15:50:17.555Z,4.90
2022-12-08T15:52:44.286Z,4.57
2022-12-08T15:55:18.412Z,4.60
2022-12-08T16:09:29.877Z,4.80
2022-12-08T16:12:15.664Z,5.55
2022-12-08T16:17:30.917Z,4.90
2022-12-08T16:19:57.567Z,5.15
2022-12-08T16:25:18.784Z,5.20
2022-12-08T16:30:33.100Z,4.90
2022-12-08T16:32:59.684Z,4.87
2022-12-08T16:35:26.257Z,5.03
2022-12-08T16:37:52.809Z,4.20
2022-12-08T16:40:19.393Z,4.70
2022-12-08T16:42:47.797Z,5.03
2022-12-08T16:45:19.460Z,4.97
2022-12-08T16:47:47.558Z,4.75
2022-12-08T16:50:15.463Z,4.70
2022-12-08T16:52:42.017Z,4.97
2022-12-08T16:55:13.781Z,5.60
2022-12-08T16:57:40.479Z,5.18
2022-12-08T17:00:09.021Z,4.82
2022-12-08T17:02:35.584Z,4.87
2022-12-08T17:05:02.243Z,5.35
2022-12-08T17:07:28.881Z,5.15
2022-12-08T17:09:55.494Z,4.97
2022-12-08T17:12:22.138Z,5.18
2022-12-08T17:14:48.713Z,5.20
2022-12-08T17:17:15.282Z,4.30
2022-12-08T17:19:41.866Z,5.00
2022-12-08T17:22:08.436Z,4.80
2022-12-08T17:24:35.047Z,4.40
2022-12-08T17:27:04.481Z,5.10
2022-12-08T17:29:31.849Z,4.30
2022-12-08T17:31:58.563Z,4.70
2022-12-08T17:34:25.149Z,5.00
2022-12-08T17:36:51.873Z,5.07
2022-12-08T17:39:19.209Z,5.18
2022-12-08T17:41:46.436Z,5.32
2022-12-08T17:44:14.686Z,5.05
2022-12-08T17:46:44.298Z,5.32
2022-12-08T17:49:18.593Z,4.37
2022-12-08T17:51:49.162Z,4.22
2022-12-08T17:54:16.743Z,4.57
2022-12-08T17:56:43.543Z,4.97
2022-12-08T17:59:10.501Z,4.72
2022-12-08T18:01:37.189Z,4.82
2022-12-08T18:04:05.134Z,4.43
2022-12-08T18:06:31.701Z,4.43
2022-12-08T18:08:58.976Z,4.75
2022-12-08T18:11:25.757Z,4.30
2022-12-08T18:13:52.447Z,4.22
2022-12-08T18:16:20.432Z,4.12
2022-12-08T18:18:47.575Z,4.20
2022-12-08T18:21:19.902Z,4.30
2022-12-08T18:26:16.034Z,4.10
2022-12-08T18:28:42.636Z,4.55
2022-12-08T18:31:13.871Z,4.50
2022-12-08T18:33:41.124Z,4.80
2022-12-08T18:36:12.883Z,4.30
2022-12-08T18:38:39.585Z,4.85
2022-12-08T18:41:13.289Z,4.35
2022-12-08T18:43:39.883Z,4.68
2022-12-08T18:46:09.409Z,4.12
2022-12-08T18:48:37.214Z,4.40
2022-12-08T18:51:04.257Z,4.50
2022-12-08T18:53:31.603Z,5.10
2022-12-08T18:55:58.177Z,4.95
2022-12-08T18:58:24.727Z,4.60
2022-12-08T19:00:51.317Z,4.72
2022-12-08T19:03:18.007Z,4.37
2022-12-08T19:05:44.611Z,4.30
2022-12-08T19:08:11.250Z,5.00
2022-12-08T19:10:38.177Z,4.43
2022-12-08T19:13:05.698Z,4.80
2022-12-08T19:15:33.700Z,4.35
2022-12-08T19:18:00.376Z,4.60
2022-12-08T19:20:27.505Z,4.70
2022-12-08T19:22:54.478Z,4.70
2022-12-08T19:25:21.839Z,4.60
2022-12-08T19:27:48.429Z,4.37
2022-12-08T19:30:15.653Z,4.25
2022-12-08T19:32:42.201Z,4.53
2022-12-08T19:35:08.921Z,4.68
2022-12-08T19:37:35.556Z,4.07
2022-12-08T19:40:20.641Z,3.87
2022-12-08T19:43:05.472Z,4.33
2022-12-08T19:45:32.565Z,4.18
2022-12-08T19:47:59.277Z,5.22
2022-12-08T19:50:37.993Z,4.50
2022-12-08T19:53:09.294Z,4.43
2022-12-08T19:55:36.557Z,4.25
2022-12-08T19:58:03.459Z,4.37
2022-12-08T20:00:30.396Z,4.07
2022-12-08T20:02:58.580Z,4.93
2022-12-08T20:05:25.512Z,4.93
2022-12-08T20:07:55.597Z,4.15
2022-12-08T20:10:28.108Z,4.55
2022-12-08T20:13:15.283Z,4.87
2022-12-08T20:15:42.069Z,4.57
2022-12-08T20:18:08.921Z,4.72
2022-12-08T20:20:35.485Z,5.22
2022-12-08T20:23:02.046Z,4.70
2022-12-08T20:25:28.650Z,4.80
2022-12-08T20:27:55.817Z,5.10
2022-12-08T20:30:22.452Z,4.62
2022-12-08T20:32:49.039Z,4.68
2022-12-08T20:35:15.657Z,4.62
2022-12-08T20:37:42.349Z,4.45
2022-12-08T20:40:09.371Z,4.32
2022-12-08T20:42:35.952Z,4.70
2022-12-08T20:45:05.300Z,4.65
2022-12-08T20:47:32.264Z,4.75
2022-12-08T20:49:59.037Z,4.28
2022-12-08T20:52:25.672Z,4.93
2022-12-08T20:54:52.274Z,4.47
2022-12-08T20:57:18.839Z,5.25
2022-12-08T20:59:45.547Z,4.60
2022-12-08T21:02:12.213Z,4.68
2022-12-08T21:04:38.977Z,4.55
2022-12-08T21:07:05.834Z,4.72
2022-12-08T21:09:32.577Z,4.65
2022-12-08T21:11:59.225Z,4.60
2022-12-08T21:14:25.835Z,4.95
2022-12-08T21:16:54.568Z,5.18
2022-12-08T21:19:21.686Z,5.00
2022-12-08T21:21:50.501Z,5.03
2022-12-08T21:24:20.673Z,4.60
2022-12-08T21:26:47.442Z,4.82
2022-12-08T21:29:14.145Z,4.78
2022-12-08T21:31:41.027Z,4.72
2022-12-08T21:34:07.974Z,4.72
2022-12-08T21:36:34.765Z,5.00
2022-12-08T21:39:02.775Z,4.82
2022-12-08T21:41:48.627Z,5.12
2022-12-08T21:44:18.401Z,5.43
2022-12-08T21:46:45.018Z,4.75
2022-12-08T21:49:11.749Z,5.20
2022-12-08T21:51:42.140Z,4.80
2022-12-08T21:54:15.041Z,5.22
2022-12-08T21:56:45.949Z,5.10
2022-12-08T21:59:12.609Z,5.68
2022-12-08T22:01:39.507Z,5.53
2022-12-08T22:04:06.440Z,5.43
2022-12-08T22:06:33.292Z,5.35
2022-12-08T22:09:00.220Z,6.00
2022-12-08T22:11:27.681Z,5.53
2022-12-08T22:13:54.486Z,5.62
2022-12-08T22:16:21.346Z,5.00
2022-12-08T22:18:48.135Z,4.93
2022-12-08T22:21:16.142Z,5.15
2022-12-08T22:23:43.016Z,5.30
2022-12-08T22:26:09.831Z,5.12
2022-12-08T22:28:40.712Z,5.53
2022-12-08T22:31:11.386Z,5.32
2022-12-08T22:33:39.001Z,5.95
2022-12-08T22:36:10.706Z,5.55
2022-12-08T22:38:37.839Z,5.32
2022-12-08T22:41:05.240Z,5.25
2022-12-08T22:43:32.077Z,5.22
2022-12-08T22:45:58.702Z,5.55
2022-12-08T22:48:25.465Z,5.22
2022-12-08T22:50:52.032Z,5.53
2022-12-08T22:53:18.605Z,5.75
2022-12-08T22:55:45.277Z,5.30
2022-12-08T22:58:12.006Z,5.68
2022-12-08T23:00:38.658Z,5.22
2022-12-08T23:03:05.840Z,5.37
2022-12-08T23:05:36.787Z,5.80
2022-12-08T23:08:03.635Z,4.97
2022-12-08T23:10:30.353Z,6.62
2022-12-08T23:13:03.510Z,5.30
2022-12-08T23:15:30.691Z,4.97
2022-12-08T23:17:57.502Z,5.47
2022-12-08T23:20:24.228Z,5.50
2022-12-08T23:22:51.012Z,5.72
2022-12-08T23:25:18.532Z,5.82
2022-12-08T23:27:45.571Z,5.53
2022-12-08T23:30:12.681Z,5.82
2022-12-08T23:32:39.356Z,5.50
2022-12-08T23:35:06.645Z,5.68
2022-12-08T23:37:33.186Z,5.90
2022-12-08T23:39:59.890Z,6.05
2022-12-08T23:42:26.454Z,5.18
2022-12-08T23:44:53.137Z,5.82
2022-12-08T23:47:19.810Z,5.75
2022-12-08T23:49:46.382Z,6.47
2022-12-08T23:52:13.820Z,5.80
2022-12-08T23:54:40.579Z,6.12
2022-12-08T23:57:07.807Z,6.03
2022-12-08T23:59:34.408Z,6.00
